Terminal Aerodrome Forecast
Issued by NWS

Home | Current Version | Previous Version | Text Only | Print | Product List | Glossary Off
Versions: 1 2 3 4 5 6 7 8 9 10 11 12 13 14 15 16 17 18 19 20 21 22 23 24 25 26 27 28 29 30 31 32

000
FTUS43 KLOT 210200 AAA
TAFMDW
TAF AMD
KMDW 210254Z 2103/2124 17007KT P6SM SCT150 BKN300
     FM211500 23010KT P6SM SCT060 BKN100
     FM211900 25011KT P6SM VCTS BKN050CB
      TEMPO 2121/2124 5SM SHRA=

USA.gov is the U.S. government's official web portal to all federal, state and local government web resources and services.